Time,TemperatureF,DewpointF,PressureIn,WindDirection,WindDirectionDegrees,WindSpeedMPH,WindSpeedGustMPH,Humidity,HourlyPrecipIn,Conditions,Clouds,dailyrainin,SoftwareType,DateUTC
2013-08-21 00:01:00,72.0,63.2,30.04,North,1,0.0,0.0,74,0.00,CLR,,0.00,WeatherDisplay:10.37,2013-08-21 05:01:00,
2013-08-21 00:06:00,72.0,63.2,30.04,North,1,0.0,0.0,74,0.00,CLR,,0.00,WeatherDisplay:10.37,2013-08-21 05:06:00,
2013-08-21 00:11:00,71.8,63.0,30.04,North,1,0.0,0.0,74,0.00,CLR,,0.00,WeatherDisplay:10.37,2013-08-21 05:11:00,
2013-08-21 00:16:00,71.4,62.7,30.03,North,1,0.0,0.0,74,0.00,CLR,,0.00,WeatherDisplay:10.37,2013-08-21 05:16:00,
2013-08-21 00:21:00,71.4,62.7,30.03,North,1,0.0,0.0,74,0.00,CLR,,0.00,WeatherDisplay:10.37,2013-08-21 05:21:00,
2013-08-21 00:26:00,71.4,62.7,30.03,North,1,0.0,0.0,74,0.00,CLR,,0.00,WeatherDisplay:10.37,2013-08-21 05:26:00,
2013-08-21 00:31:00,71.2,62.9,30.03,North,1,0.0,0.0,75,0.00,CLR,,0.00,WeatherDisplay:10.37,2013-08-21 05:31:00,
2013-08-21 00:36:00,71.2,62.9,30.03,North,1,0.0,0.0,75,0.00,CLR,,0.00,WeatherDisplay:10.37,2013-08-21 05:36:00,
2013-08-21 00:41:00,71.1,62.7,30.03,North,1,0.0,0.0,75,0.00,CLR,,0.00,WeatherDisplay:10.37,2013-08-21 05:41:00,
2013-08-21 00:46:00,71.1,62.4,30.03,North,1,0.0,0.0,74,0.00,CLR,,0.00,WeatherDisplay:10.37,2013-08-21 05:46:00,
2013-08-21 00:51:00,71.1,62.7,30.03,North,1,0.0,0.0,75,0.00,CLR,,0.00,WeatherDisplay:10.37,2013-08-21 05:51:00,
2013-08-21 00:56:00,70.9,62.6,30.03,North,1,0.0,0.0,75,0.00,CLR,,0.00,WeatherDisplay:10.37,2013-08-21 05:56:00,
2013-08-21 01:01:00,70.7,62.4,30.03,North,1,0.0,0.0,75,0.00,CLR,,0.00,WeatherDisplay:10.37,2013-08-21 06:01:00,
2013-08-21 01:06:00,70.5,62.2,30.03,North,1,0.0,0.0,75,0.00,CLR,,0.00,WeatherDisplay:10.37,2013-08-21 06:06:00,
2013-08-21 01:11:00,70.5,62.2,30.03,North,1,0.0,0.0,75,0.00,CLR,,0.00,WeatherDisplay:10.37,2013-08-21 06:11:00,
2013-08-21 01:16:00,70.3,62.0,30.03,North,1,0.0,0.0,75,0.00,CLR,,0.00,WeatherDisplay:10.37,2013-08-21 06:16:00,
2013-08-21 01:21:00,70.2,61.9,30.03,North,1,0.0,0.0,75,0.00,CLR,,0.00,WeatherDisplay:10.37,2013-08-21 06:21:00,
2013-08-21 01:26:00,70.2,61.9,30.03,North,1,0.0,0.0,75,0.00,CLR,,0.00,WeatherDisplay:10.37,2013-08-21 06:26:00,
2013-08-21 01:31:00,70.2,61.9,30.03,North,1,0.0,0.0,75,0.00,CLR,,0.00,WeatherDisplay:10.37,2013-08-21 06:31:00,
2013-08-21 01:36:00,70.2,61.5,30.03,North,1,0.0,0.0,74,0.00,CLR,,0.00,WeatherDisplay:10.37,2013-08-21 06:36:00,
2013-08-21 01:41:00,70.2,61.5,30.03,North,1,0.0,0.0,74,0.00,CLR,,0.00,WeatherDisplay:10.37,2013-08-21 06:41:00,
2013-08-21 01:46:00,70.2,61.5,30.03,North,1,0.0,0.0,74,0.00,CLR,,0.00,WeatherDisplay:10.37,2013-08-21 06:46:00,
2013-08-21 01:51:00,70.2,61.5,30.02,North,1,0.0,0.0,74,0.00,CLR,,0.00,WeatherDisplay:10.37,2013-08-21 06:51:00,
2013-08-21 01:56:00,70.2,61.5,30.03,North,1,0.0,0.0,74,0.00,CLR,,0.00,WeatherDisplay:10.37,2013-08-21 06:56:00,
2013-08-21 02:01:00,70.2,61.5,30.03,North,1,0.0,0.0,74,0.00,CLR,,0.00,WeatherDisplay:10.37,2013-08-21 07:01:00,
2013-08-21 02:06:00,70.2,61.5,30.03,North,1,0.0,0.0,74,0.00,CLR,,0.00,WeatherDisplay:10.37,2013-08-21 07:06:00,
2013-08-21 02:11:00,70.0,61.3,30.02,North,1,0.0,0.0,74,0.00,CLR,,0.00,WeatherDisplay:10.37,2013-08-21 07:11:00,
2013-08-21 02:16:00,69.6,61.0,30.03,North,1,0.0,0.0,74,0.00,CLR,,0.00,WeatherDisplay:10.37,2013-08-21 07:16:00,
2013-08-21 02:21:00,69.4,60.8,30.03,North,1,0.0,0.0,74,0.00,CLR,,0.00,WeatherDisplay:10.37,2013-08-21 07:21:00,
2013-08-21 02:26:00,69.3,60.6,30.03,North,1,0.0,0.0,74,0.00,CLR,,0.00,WeatherDisplay:10.37,2013-08-21 07:26:00,
2013-08-21 02:31:00,69.3,61.0,30.02,North,1,0.0,0.0,75,0.00,CLR,,0.00,WeatherDisplay:10.37,2013-08-21 07:31:00,
2013-08-21 02:36:00,69.3,61.0,30.03,North,1,0.0,0.0,75,0.00,CLR,,0.00,WeatherDisplay:10.37,2013-08-21 07:36:00,
2013-08-21 02:41:00,69.3,61.0,30.03,North,1,0.0,0.0,75,0.00,CLR,,0.00,WeatherDisplay:10.37,2013-08-21 07:41:00,
2013-08-21 02:46:00,69.3,60.6,30.02,North,1,0.0,0.0,74,0.00,CLR,,0.00,WeatherDisplay:10.37,2013-08-21 07:46:00,
2013-08-21 02:51:00,69.3,60.6,30.02,North,1,0.0,0.0,74,0.00,CLR,,0.00,WeatherDisplay:10.37,2013-08-21 07:51:00,
2013-08-21 02:56:00,69.3,60.6,30.02,North,1,0.0,0.0,74,0.00,CLR,,0.00,WeatherDisplay:10.37,2013-08-21 07:56:00,
2013-08-21 03:01:00,69.3,60.6,30.02,North,1,0.0,0.0,74,0.00,CLR,,0.00,WeatherDisplay:10.37,2013-08-21 08:01:00,
2013-08-21 03:06:00,69.3,60.6,30.02,North,1,0.0,0.0,74,0.00,CLR,,0.00,WeatherDisplay:10.37,2013-08-21 08:06:00,
2013-08-21 03:11:00,69.1,60.4,30.02,North,1,0.0,0.0,74,0.00,CLR,,0.00,WeatherDisplay:10.37,2013-08-21 08:11:00,
2013-08-21 03:16:00,69.1,60.4,30.02,North,1,0.0,0.0,74,0.00,CLR,,0.00,WeatherDisplay:10.37,2013-08-21 08:16:00,
2013-08-21 03:21:00,69.1,60.4,30.02,North,1,0.0,0.0,74,0.00,CLR,,0.00,WeatherDisplay:10.37,2013-08-21 08:21:00,
2013-08-21 03:26:00,69.1,60.8,30.02,North,1,0.0,0.0,75,0.00,CLR,,0.00,WeatherDisplay:10.37,2013-08-21 08:26:00,
2013-08-21 03:31:00,68.7,60.1,30.02,North,1,0.0,0.0,74,0.00,CLR,,0.00,WeatherDisplay:10.37,2013-08-21 08:31:00,
2013-08-21 03:36:00,68.5,59.9,30.02,North,1,0.0,0.0,74,0.00,CLR,,0.00,WeatherDisplay:10.37,2013-08-21 08:36:00,
2013-08-21 03:41:00,68.4,60.1,30.02,North,1,0.0,0.0,75,0.00,CLR,,0.00,WeatherDisplay:10.37,2013-08-21 08:41:00,
2013-08-21 03:46:00,68.4,60.1,30.02,North,1,0.0,0.0,75,0.00,CLR,,0.00,WeatherDisplay:10.37,2013-08-21 08:46:00,
2013-08-21 03:51:00,68.2,60.0,30.02,North,1,0.0,0.0,75,0.00,CLR,,0.00,WeatherDisplay:10.37,2013-08-21 08:51:00,
2013-08-21 03:56:00,68.2,60.0,30.02,North,1,0.0,0.0,75,0.00,CLR,,0.00,WeatherDisplay:10.37,2013-08-21 08:56:00,
2013-08-21 04:01:00,68.2,60.0,30.02,North,1,0.0,0.0,75,0.00,CLR,,0.00,WeatherDisplay:10.37,2013-08-21 09:01:00,
2013-08-21 04:06:00,67.8,59.6,30.01,North,1,0.0,0.0,75,0.00,CLR,,0.00,WeatherDisplay:10.37,2013-08-21 09:06:00,
2013-08-21 04:11:00,67.8,60.0,30.02,North,1,0.0,0.0,76,0.00,CLR,,0.00,WeatherDisplay:10.37,2013-08-21 09:11:00,
2013-08-21 04:16:00,67.8,60.0,30.01,North,1,0.0,0.0,76,0.00,CLR,,0.00,WeatherDisplay:10.37,2013-08-21 09:16:00,
2013-08-21 04:21:00,67.6,59.8,30.01,North,1,0.0,0.0,76,0.00,CLR,,0.00,WeatherDisplay:10.37,2013-08-21 09:21:00,
2013-08-21 04:26:00,67.6,59.8,30.01,North,1,0.0,0.0,76,0.00,CLR,,0.00,WeatherDisplay:10.37,2013-08-21 09:26:00,
2013-08-21 04:31:00,67.6,59.8,30.02,North,1,0.0,0.0,76,0.00,CLR,,0.00,WeatherDisplay:10.37,2013-08-21 09:31:00,
2013-08-21 04:36:00,67.6,59.8,30.01,North,1,0.0,0.0,76,0.00,CLR,,0.00,WeatherDisplay:10.37,2013-08-21 09:36:00,
2013-08-21 04:41:00,67.6,59.8,30.01,North,1,0.0,0.0,76,0.00,CLR,,0.00,WeatherDisplay:10.37,2013-08-21 09:41:00,
2013-08-21 04:46:00,67.5,59.6,30.01,North,1,0.0,0.0,76,0.00,CLR,,0.00,WeatherDisplay:10.37,2013-08-21 09:46:00,
2013-08-21 04:51:00,67.5,59.6,30.01,North,1,0.0,0.0,76,0.00,CLR,,0.00,WeatherDisplay:10.37,2013-08-21 09:51:00,
2013-08-21 04:56:00,67.3,59.5,30.01,North,1,0.0,0.0,76,0.00,CLR,,0.00,WeatherDisplay:10.37,2013-08-21 09:56:00,
2013-08-21 05:01:00,67.1,59.3,30.01,North,1,0.0,0.0,76,0.00,CLR,,0.00,WeatherDisplay:10.37,2013-08-21 10:01:00,
2013-08-21 05:06:00,66.9,59.1,30.01,North,1,0.0,0.0,76,0.00,CLR,,0.00,WeatherDisplay:10.37,2013-08-21 10:06:00,
2013-08-21 05:11:00,66.7,58.9,30.01,North,1,0.0,0.0,76,0.00,CLR,,0.00,WeatherDisplay:10.37,2013-08-21 10:11:00,
2013-08-21 05:16:00,66.6,59.1,30.01,North,1,0.0,0.0,77,0.00,CLR,,0.00,WeatherDisplay:10.37,2013-08-21 10:16:00,
2013-08-21 05:21:00,66.6,59.1,30.01,North,1,0.0,0.0,77,0.00,CLR,,0.00,WeatherDisplay:10.37,2013-08-21 10:21:00,
2013-08-21 05:26:00,66.4,58.9,30.01,North,1,0.0,0.0,77,0.00,CLR,,0.00,WeatherDisplay:10.37,2013-08-21 10:26:00,
2013-08-21 05:31:00,66.4,59.3,30.02,North,1,0.0,0.0,78,0.00,CLR,,0.00,WeatherDisplay:10.37,2013-08-21 10:31:00,
2013-08-21 05:36:00,66.4,59.3,30.02,North,1,0.0,0.0,78,0.00,CLR,,0.00,WeatherDisplay:10.37,2013-08-21 10:36:00,
2013-08-21 05:41:00,66.0,59.0,30.02,North,1,0.0,0.0,78,0.00,CLR,,0.00,WeatherDisplay:10.37,2013-08-21 10:41:00,
2013-08-21 05:46:00,66.0,59.0,30.02,North,1,0.0,0.0,78,0.00,CLR,,0.00,WeatherDisplay:10.37,2013-08-21 10:46:00,
2013-08-21 05:51:00,66.0,59.0,30.02,North,1,0.0,0.0,78,0.00,CLR,,0.00,WeatherDisplay:10.37,2013-08-21 10:51:00,
2013-08-21 05:56:00,66.0,59.0,30.02,North,1,0.0,0.0,78,0.00,CLR,,0.00,WeatherDisplay:10.37,2013-08-21 10:56:00,
2013-08-21 06:01:00,66.0,59.0,30.02,North,1,0.0,0.0,78,0.00,CLR,,0.00,WeatherDisplay:10.37,2013-08-21 11:01:00,
2013-08-21 06:06:00,66.0,59.0,30.03,North,1,0.0,0.0,78,0.00,CLR,,0.00,WeatherDisplay:10.37,2013-08-21 11:06:00,
2013-08-21 06:11:00,66.0,59.0,30.02,North,1,0.0,0.0,78,0.00,CLR,,0.00,WeatherDisplay:10.37,2013-08-21 11:11:00,
2013-08-21 06:16:00,66.0,59.0,30.03,North,1,0.0,0.0,78,0.00,CLR,,0.00,WeatherDisplay:10.37,2013-08-21 11:16:00,
2013-08-21 06:21:00,66.0,59.0,30.03,North,1,0.0,0.0,78,0.00,CLR,,0.00,WeatherDisplay:10.37,2013-08-21 11:21:00,
2013-08-21 06:26:00,65.8,58.8,30.03,North,1,0.0,0.0,78,0.00,CLR,,0.00,WeatherDisplay:10.37,2013-08-21 11:26:00,
2013-08-21 06:31:00,65.8,58.8,30.03,North,1,0.0,0.0,78,0.00,CLR,,0.00,WeatherDisplay:10.37,2013-08-21 11:31:00,
2013-08-21 06:36:00,65.8,58.8,30.04,North,1,0.0,0.0,78,0.00,CLR,,0.00,WeatherDisplay:10.37,2013-08-21 11:36:00,
2013-08-21 06:41:00,65.8,58.8,30.04,North,1,0.0,0.0,78,0.00,CLR,,0.00,WeatherDisplay:10.37,2013-08-21 11:41:00,
2013-08-21 06:46:00,65.8,58.8,30.04,North,1,0.0,0.0,78,0.00,CLR,,0.00,WeatherDisplay:10.37,2013-08-21 11:46:00,
2013-08-21 06:51:00,66.0,59.0,30.04,North,1,0.0,0.0,78,0.00,CLR,,0.00,WeatherDisplay:10.37,2013-08-21 11:51:00,
2013-08-21 06:56:00,65.8,58.8,30.04,North,1,0.0,0.0,78,0.00,CLR,,0.00,WeatherDisplay:10.37,2013-08-21 11:56:00,
2013-08-21 07:01:00,66.0,59.0,30.04,North,1,0.0,0.0,78,0.00,CLR,,0.00,WeatherDisplay:10.37,2013-08-21 12:01:00,
2013-08-21 07:06:00,65.8,58.8,30.04,North,1,0.0,0.0,78,0.00,CLR,,0.00,WeatherDisplay:10.37,2013-08-21 12:06:00,
2013-08-21 07:11:00,66.0,59.0,30.05,North,1,0.0,0.0,78,0.00,CLR,,0.00,WeatherDisplay:10.37,2013-08-21 12:11:00,
2013-08-21 07:16:00,66.0,59.0,30.05,North,1,0.0,0.0,78,0.00,CLR,,0.00,WeatherDisplay:10.37,2013-08-21 12:16:00,
2013-08-21 07:21:00,66.0,59.0,30.05,North,1,0.0,0.0,78,0.00,CLR,,0.00,WeatherDisplay:10.37,2013-08-21 12:21:00,
2013-08-21 07:26:00,66.2,59.1,30.05,North,1,0.0,0.0,78,0.00,CLR,,0.00,WeatherDisplay:10.37,2013-08-21 12:26:00,
2013-08-21 07:31:00,66.0,59.0,30.05,North,1,0.0,0.0,78,0.00,CLR,,0.00,WeatherDisplay:10.37,2013-08-21 12:31:00,
2013-08-21 07:36:00,66.2,59.1,30.05,North,1,0.0,0.0,78,0.00,CLR,,0.00,WeatherDisplay:10.37,2013-08-21 12:36:00,
2013-08-21 07:41:00,66.4,59.3,30.05,North,1,0.0,0.0,78,0.00,CLR,,0.00,WeatherDisplay:10.37,2013-08-21 12:41:00,
2013-08-21 07:46:00,66.4,59.3,30.05,North,1,0.0,0.0,78,0.00,CLR,,0.00,WeatherDisplay:10.37,2013-08-21 12:46:00,
2013-08-21 07:51:00,66.6,59.8,30.05,North,1,0.0,0.0,79,0.00,CLR,,0.00,WeatherDisplay:10.37,2013-08-21 12:51:00,
2013-08-21 07:56:00,66.9,60.2,30.05,North,1,0.0,0.0,79,0.00,CLR,,0.00,WeatherDisplay:10.37,2013-08-21 12:56:00,
2013-08-21 08:01:00,67.1,60.4,30.05,North,1,0.0,0.0,79,0.00,CLR,,0.00,WeatherDisplay:10.37,2013-08-21 13:01:00,
2013-08-21 08:06:00,67.5,60.7,30.05,North,1,0.0,0.0,79,0.00,CLR,,0.00,WeatherDisplay:10.37,2013-08-21 13:06:00,
2013-08-21 08:11:00,67.6,60.9,30.05,North,1,0.0,0.0,79,0.00,CLR,,0.00,WeatherDisplay:10.37,2013-08-21 13:11:00,
2013-08-21 08:16:00,68.4,61.6,30.05,North,1,0.0,0.0,79,0.00,CLR,,0.00,WeatherDisplay:10.37,2013-08-21 13:16:00,
2013-08-21 08:21:00,68.7,61.6,30.05,North,1,0.0,0.0,78,0.00,CLR,,0.00,WeatherDisplay:10.37,2013-08-21 13:21:00,
2013-08-21 08:26:00,69.1,61.9,30.05,North,1,0.0,0.0,78,0.00,CLR,,0.00,WeatherDisplay:10.37,2013-08-21 13:26:00,
2013-08-21 08:31:00,70.0,62.8,30.05,North,1,0.0,0.0,78,0.00,CLR,,0.00,WeatherDisplay:10.37,2013-08-21 13:31:00,
2013-08-21 08:36:00,70.2,62.6,30.05,North,1,0.0,0.0,77,0.00,CLR,,0.00,WeatherDisplay:10.37,2013-08-21 13:36:00,
2013-08-21 08:41:00,70.9,62.9,30.06,North,1,0.0,0.0,76,0.00,CLR,,0.00,WeatherDisplay:10.37,2013-08-21 13:41:00,
2013-08-21 08:46:00,71.8,63.4,30.06,North,1,0.0,0.0,75,0.00,CLR,,0.00,WeatherDisplay:10.37,2013-08-21 13:46:00,
2013-08-21 08:51:00,72.3,63.9,30.06,North,1,0.0,0.0,75,0.00,CLR,,0.00,WeatherDisplay:10.37,2013-08-21 13:51:00,
2013-08-21 08:56:00,72.9,64.1,30.06,North,1,0.0,0.0,74,0.00,CLR,,0.00,WeatherDisplay:10.37,2013-08-21 13:56:00,
2013-08-21 09:01:00,73.6,64.4,30.06,North,1,0.0,0.0,73,0.00,CLR,,0.00,WeatherDisplay:10.37,2013-08-21 14:01:00,
2013-08-21 09:06:00,74.1,64.5,30.06,North,1,0.0,0.0,72,0.00,CLR,,0.00,WeatherDisplay:10.37,2013-08-21 14:06:00,
2013-08-21 09:11:00,74.5,64.5,30.05,North,1,0.0,0.0,71,0.00,CLR,,0.00,WeatherDisplay:10.37,2013-08-21 14:11:00,
2013-08-21 09:16:00,75.2,64.7,30.05,North,1,0.0,0.0,70,0.00,CLR,,0.00,WeatherDisplay:10.37,2013-08-21 14:16:00,
2013-08-21 09:21:00,75.7,64.8,30.06,North,1,0.0,0.0,69,0.00,CLR,,0.00,WeatherDisplay:10.37,2013-08-21 14:21:00,
2013-08-21 09:26:00,76.3,65.4,30.05,North,1,0.0,0.0,69,0.00,CLR,,0.00,WeatherDisplay:10.37,2013-08-21 14:26:00,
2013-08-21 09:31:00,76.6,65.3,30.05,North,1,0.0,0.0,68,0.00,CLR,,0.00,WeatherDisplay:10.37,2013-08-21 14:31:00,
2013-08-21 09:36:00,77.7,65.9,30.05,North,1,0.0,0.0,67,0.00,CLR,,0.00,WeatherDisplay:10.37,2013-08-21 14:36:00,
2013-08-21 09:41:00,77.7,65.5,30.06,North,1,0.0,0.0,66,0.00,CLR,,0.00,WeatherDisplay:10.37,2013-08-21 14:41:00,
2013-08-21 09:46:00,77.7,65.5,30.06,North,1,0.0,0.0,66,0.00,CLR,,0.00,WeatherDisplay:10.37,2013-08-21 14:46:00,
2013-08-21 09:51:00,79.2,65.9,30.06,North,1,0.0,0.0,64,0.00,CLR,,0.00,WeatherDisplay:10.37,2013-08-21 14:51:00,
2013-08-21 09:56:00,79.2,65.9,30.06,North,1,0.0,0.0,64,0.00,CLR,,0.00,WeatherDisplay:10.37,2013-08-21 14:56:00,
2013-08-21 10:01:00,79.2,65.5,30.06,North,1,0.0,0.0,63,0.00,CLR,,0.00,WeatherDisplay:10.37,2013-08-21 15:01:00,
2013-08-21 10:06:00,80.8,66.5,30.06,North,1,0.0,0.0,62,0.00,CLR,,0.00,WeatherDisplay:10.37,2013-08-21 15:06:00,
2013-08-21 10:11:00,81.3,67.1,30.06,North,1,0.0,0.0,62,0.00,CLR,,0.00,WeatherDisplay:10.37,2013-08-21 15:11:00,
2013-08-21 10:16:00,81.7,66.9,30.06,North,1,0.0,0.0,61,0.00,CLR,,0.00,WeatherDisplay:10.37,2013-08-21 15:16:00,
2013-08-21 10:21:00,82.0,67.3,30.06,North,1,0.0,0.0,61,0.00,CLR,,0.00,WeatherDisplay:10.37,2013-08-21 15:21:00,
2013-08-21 10:26:00,82.8,67.5,30.06,North,1,0.0,0.0,60,0.00,CLR,,0.00,WeatherDisplay:10.37,2013-08-21 15:26:00,
2013-08-21 10:31:00,83.3,67.5,30.07,North,1,0.0,0.0,59,0.00,CLR,,0.00,WeatherDisplay:10.37,2013-08-21 15:31:00,
2013-08-21 10:36:00,83.7,67.3,30.06,North,1,0.0,0.0,58,0.00,CLR,,0.00,WeatherDisplay:10.37,2013-08-21 15:36:00,
2013-08-21 10:41:00,84.0,66.6,30.07,North,1,0.0,0.0,56,0.00,CLR,,0.00,WeatherDisplay:10.37,2013-08-21 15:41:00,
2013-08-21 10:46:00,84.4,67.0,30.07,North,1,0.0,0.0,56,0.00,CLR,,0.00,WeatherDisplay:10.37,2013-08-21 15:46:00,
2013-08-21 10:51:00,84.7,66.8,30.07,North,1,0.0,0.0,55,0.00,CLR,,0.00,WeatherDisplay:10.37,2013-08-21 15:51:00,
2013-08-21 10:56:00,84.9,66.9,30.07,North,1,0.0,0.0,55,0.00,CLR,,0.00,WeatherDisplay:10.37,2013-08-21 15:56:00,
2013-08-21 11:01:00,85.5,66.9,30.07,North,1,0.0,0.0,54,0.00,CLR,,0.00,WeatherDisplay:10.37,2013-08-21 16:01:00,
2013-08-21 11:06:00,85.8,67.3,30.07,North,1,0.0,0.0,54,0.00,CLR,,0.00,WeatherDisplay:10.37,2013-08-21 16:06:00,
2013-08-21 11:11:00,86.0,66.9,30.07,North,1,0.0,0.0,53,0.00,CLR,,0.00,WeatherDisplay:10.37,2013-08-21 16:11:00,
2013-08-21 11:16:00,86.4,67.2,30.07,North,1,0.0,0.0,53,0.00,CLR,,0.00,WeatherDisplay:10.37,2013-08-21 16:16:00,
2013-08-21 11:21:00,86.4,67.2,30.07,North,1,0.0,0.0,53,0.00,CLR,,0.00,WeatherDisplay:10.37,2013-08-21 16:21:00,
2013-08-21 11:26:00,86.9,67.7,30.07,North,1,0.0,0.0,53,0.00,CLR,,0.00,WeatherDisplay:10.37,2013-08-21 16:26:00,
2013-08-21 11:31:00,87.4,68.2,30.07,North,1,0.0,0.0,53,0.00,CLR,,0.00,WeatherDisplay:10.37,2013-08-21 16:31:00,
2013-08-21 11:36:00,87.4,67.7,30.07,North,1,0.0,0.0,52,0.00,CLR,,0.00,WeatherDisplay:10.37,2013-08-21 16:36:00,
2013-08-21 11:47:00,87.4,67.1,30.07,North,1,0.0,0.0,51,0.00,CLR,,0.00,WeatherDisplay:10.37,2013-08-21 16:47:00,
2013-08-21 11:52:00,87.6,67.3,30.06,North,1,0.0,0.0,51,0.00,CLR,,0.00,WeatherDisplay:10.37,2013-08-21 16:52:00,
2013-08-21 11:57:00,87.6,67.3,30.06,North,1,0.0,0.0,51,0.00,CLR,,0.00,WeatherDisplay:10.37,2013-08-21 16:57:00,
2013-08-21 12:02:00,87.6,67.3,30.06,North,1,0.0,0.0,51,0.00,CLR,,0.00,WeatherDisplay:10.37,2013-08-21 17:02:00,
2013-08-21 12:07:00,88.0,67.6,30.06,North,1,0.0,0.0,51,0.00,CLR,,0.00,WeatherDisplay:10.37,2013-08-21 17:07:00,
2013-08-21 12:12:00,88.5,68.1,30.06,North,1,0.0,0.0,51,0.00,CLR,,0.00,WeatherDisplay:10.37,2013-08-21 17:12:00,
2013-08-21 12:17:00,88.9,68.4,30.06,North,1,0.0,0.0,51,0.00,CLR,,0.00,WeatherDisplay:10.37,2013-08-21 17:17:00,
2013-08-21 12:22:00,88.7,67.7,30.05,North,1,0.0,0.0,50,0.00,CLR,,0.00,WeatherDisplay:10.37,2013-08-21 17:22:00,
2013-08-21 12:27:00,88.7,67.7,30.05,North,1,0.0,0.0,50,0.00,CLR,,0.00,WeatherDisplay:10.37,2013-08-21 17:27:00,
2013-08-21 12:32:00,88.9,67.8,30.05,North,1,0.0,0.0,50,0.00,CLR,,0.00,WeatherDisplay:10.37,2013-08-21 17:32:00,
2013-08-21 12:37:00,88.9,67.8,30.05,North,1,0.0,0.0,50,0.00,CLR,,0.00,WeatherDisplay:10.37,2013-08-21 17:37:00,
2013-08-21 12:42:00,89.1,68.0,30.05,North,1,0.0,0.0,50,0.00,CLR,,0.00,WeatherDisplay:10.37,2013-08-21 17:42:00,
2013-08-21 12:47:00,89.4,68.3,30.05,North,1,0.0,0.0,50,0.00,CLR,,0.00,WeatherDisplay:10.37,2013-08-21 17:47:00,
2013-08-21 12:52:00,89.6,67.9,30.05,North,1,0.0,0.0,49,0.00,CLR,,0.00,WeatherDisplay:10.37,2013-08-21 17:52:00,
2013-08-21 12:57:00,90.0,68.2,30.05,North,1,0.0,0.0,49,0.00,CLR,,0.00,WeatherDisplay:10.37,2013-08-21 17:57:00,
2013-08-21 13:02:00,90.1,67.8,30.05,North,1,0.0,0.0,48,0.00,CLR,,0.00,WeatherDisplay:10.37,2013-08-21 18:02:00,
2013-08-21 13:07:00,90.3,68.6,30.05,North,1,0.0,0.0,49,0.00,CLR,,0.00,WeatherDisplay:10.37,2013-08-21 18:07:00,
2013-08-21 13:12:00,90.5,68.1,30.05,North,1,0.0,0.0,48,0.00,CLR,,0.00,WeatherDisplay:10.37,2013-08-21 18:12:00,
2013-08-21 13:17:00,90.5,67.5,30.05,North,1,0.0,0.0,47,0.00,CLR,,0.00,WeatherDisplay:10.37,2013-08-21 18:17:00,
2013-08-21 13:22:00,90.5,68.1,30.04,North,1,0.0,0.0,48,0.00,CLR,,0.00,WeatherDisplay:10.37,2013-08-21 18:22:00,
2013-08-21 13:27:00,90.3,67.4,30.05,North,1,0.0,0.0,47,0.00,CLR,,0.00,WeatherDisplay:10.37,2013-08-21 18:27:00,
2013-08-21 13:32:00,90.3,68.0,30.05,North,1,0.0,0.0,48,0.00,CLR,,0.00,WeatherDisplay:10.37,2013-08-21 18:32:00,
2013-08-21 13:37:00,90.7,68.3,30.05,North,1,0.0,0.0,48,0.00,CLR,,0.00,WeatherDisplay:10.37,2013-08-21 18:37:00,
2013-08-21 13:42:00,90.5,68.1,30.05,North,1,0.0,0.0,48,0.00,CLR,,0.00,WeatherDisplay:10.37,2013-08-21 18:42:00,
2013-08-21 13:47:00,90.7,68.3,30.04,North,1,0.0,0.0,48,0.00,CLR,,0.00,WeatherDisplay:10.37,2013-08-21 18:47:00,
2013-08-21 13:52:00,90.7,68.3,30.04,North,1,0.0,0.0,48,0.00,CLR,,0.00,WeatherDisplay:10.37,2013-08-21 18:52:00,
2013-08-21 13:57:00,90.9,68.5,30.04,North,1,0.0,0.0,48,0.00,CLR,,0.00,WeatherDisplay:10.37,2013-08-21 18:57:00,
2013-08-21 14:02:00,90.9,67.8,30.04,North,1,0.0,0.0,47,0.00,CLR,,0.00,WeatherDisplay:10.37,2013-08-21 19:02:00,
2013-08-21 14:07:00,91.0,68.6,30.04,North,1,0.0,0.0,48,0.00,CLR,,0.00,WeatherDisplay:10.37,2013-08-21 19:07:00,
2013-08-21 14:12:00,91.2,68.2,30.04,North,1,0.0,0.0,47,0.00,CLR,,0.00,WeatherDisplay:10.37,2013-08-21 19:12:00,
2013-08-21 14:17:00,91.0,68.0,30.04,North,1,0.0,0.0,47,0.00,CLR,,0.00,WeatherDisplay:10.37,2013-08-21 19:17:00,
2013-08-21 14:22:00,90.9,68.5,30.04,North,1,0.0,0.0,48,0.00,CLR,,0.00,WeatherDisplay:10.37,2013-08-21 19:22:00,
2013-08-21 14:27:00,90.7,67.7,30.04,North,1,0.0,0.0,47,0.00,CLR,,0.00,WeatherDisplay:10.37,2013-08-21 19:27:00,
2013-08-21 14:32:00,90.7,67.7,30.03,North,1,0.0,0.0,47,0.00,CLR,,0.00,WeatherDisplay:10.37,2013-08-21 19:32:00,
2013-08-21 14:37:00,90.7,67.7,30.03,North,1,0.0,0.0,47,0.00,CLR,,0.00,WeatherDisplay:10.37,2013-08-21 19:37:00,
2013-08-21 14:42:00,90.7,67.7,30.03,North,1,0.0,0.0,47,0.00,CLR,,0.00,WeatherDisplay:10.37,2013-08-21 19:42:00,
2013-08-21 14:47:00,90.7,67.7,30.03,North,1,0.0,0.0,47,0.00,CLR,,0.00,WeatherDisplay:10.37,2013-08-21 19:47:00,
2013-08-21 14:52:00,90.5,67.5,30.03,North,1,0.0,0.0,47,0.00,CLR,,0.00,WeatherDisplay:10.37,2013-08-21 19:52:00,
2013-08-21 14:57:00,90.7,67.7,30.03,North,1,0.0,0.0,47,0.00,CLR,,0.00,WeatherDisplay:10.37,2013-08-21 19:57:00,
2013-08-21 15:02:00,90.7,67.7,30.03,North,1,0.0,0.0,47,0.00,CLR,,0.00,WeatherDisplay:10.37,2013-08-21 20:02:00,
2013-08-21 15:07:00,90.7,67.1,30.03,North,1,0.0,0.0,46,0.00,CLR,,0.00,WeatherDisplay:10.37,2013-08-21 20:07:00,
2013-08-21 15:12:00,90.7,67.7,30.03,North,1,0.0,0.0,47,0.00,CLR,,0.00,WeatherDisplay:10.37,2013-08-21 20:12:00,
2013-08-21 15:17:00,90.7,67.7,30.02,North,1,0.0,0.0,47,0.00,CLR,,0.00,WeatherDisplay:10.37,2013-08-21 20:17:00,
2013-08-21 15:22:00,90.5,67.5,30.03,North,1,0.0,0.0,47,0.00,CLR,,0.00,WeatherDisplay:10.37,2013-08-21 20:22:00,
2013-08-21 15:27:00,90.3,67.4,30.03,North,1,0.0,0.0,47,0.00,CLR,,0.00,WeatherDisplay:10.37,2013-08-21 20:27:00,
2013-08-21 15:32:00,90.5,67.5,30.02,North,1,0.0,0.0,47,0.00,CLR,,0.00,WeatherDisplay:10.37,2013-08-21 20:32:00,
2013-08-21 15:37:00,90.5,67.5,30.02,North,1,0.0,0.0,47,0.00,CLR,,0.00,WeatherDisplay:10.37,2013-08-21 20:37:00,
2013-08-21 15:42:00,90.3,67.4,30.02,North,1,0.0,0.0,47,0.00,CLR,,0.00,WeatherDisplay:10.37,2013-08-21 20:42:00,
2013-08-21 15:47:00,90.5,67.5,30.02,North,1,0.0,0.0,47,0.00,CLR,,0.00,WeatherDisplay:10.37,2013-08-21 20:47:00,
2013-08-21 15:52:00,90.5,67.5,30.02,North,1,0.0,0.0,47,0.00,CLR,,0.00,WeatherDisplay:10.37,2013-08-21 20:52:00,
2013-08-21 15:57:00,90.5,67.5,30.01,North,1,0.0,0.0,47,0.00,CLR,,0.00,WeatherDisplay:10.37,2013-08-21 20:57:00,
2013-08-21 16:02:00,90.3,67.4,30.01,North,1,0.0,0.0,47,0.00,CLR,,0.00,WeatherDisplay:10.37,2013-08-21 21:02:00,
2013-08-21 16:07:00,90.0,67.0,30.01,North,1,0.0,0.0,47,0.00,CLR,,0.00,WeatherDisplay:10.37,2013-08-21 21:07:00,
2013-08-21 16:12:00,90.0,67.0,30.01,North,1,0.0,0.0,47,0.00,CLR,,0.00,WeatherDisplay:10.37,2013-08-21 21:12:00,
2013-08-21 16:17:00,90.0,67.0,30.01,North,1,0.0,0.0,47,0.00,CLR,,0.00,WeatherDisplay:10.37,2013-08-21 21:17:00,
2013-08-21 16:22:00,89.8,67.5,30.01,North,1,0.0,0.0,48,0.00,CLR,,0.00,WeatherDisplay:10.37,2013-08-21 21:22:00,
2013-08-21 16:27:00,89.8,67.5,30.01,North,1,0.0,0.0,48,0.00,CLR,,0.00,WeatherDisplay:10.37,2013-08-21 21:27:00,
2013-08-21 16:32:00,89.8,67.5,30.01,North,1,0.0,0.0,48,0.00,CLR,,0.00,WeatherDisplay:10.37,2013-08-21 21:32:00,
2013-08-21 16:37:00,89.8,67.5,30.01,North,1,0.0,0.0,48,0.00,CLR,,0.00,WeatherDisplay:10.37,2013-08-21 21:37:00,
2013-08-21 16:42:00,89.2,67.0,30.01,North,1,0.0,0.0,48,0.00,CLR,,0.00,WeatherDisplay:10.37,2013-08-21 21:42:00,
2013-08-21 16:47:00,89.2,67.0,30.01,North,1,0.0,0.0,48,0.00,CLR,,0.00,WeatherDisplay:10.37,2013-08-21 21:47:00,
2013-08-21 16:52:00,89.1,67.4,30.01,North,1,0.0,0.0,49,0.00,CLR,,0.00,WeatherDisplay:10.37,2013-08-21 21:52:00,
2013-08-21 16:57:00,89.1,67.4,30.01,North,1,0.0,0.0,49,0.00,CLR,,0.00,WeatherDisplay:10.37,2013-08-21 21:57:00,
2013-08-21 17:02:00,89.1,67.4,30.01,North,1,0.0,0.0,49,0.00,CLR,,0.00,WeatherDisplay:10.37,2013-08-21 22:02:00,
2013-08-21 17:07:00,88.9,67.2,30.01,North,1,0.0,0.0,49,0.00,CLR,,0.00,WeatherDisplay:10.37,2013-08-21 22:07:00,
2013-08-21 17:12:00,88.7,67.1,30.01,North,1,0.0,0.0,49,0.00,CLR,,0.00,WeatherDisplay:10.37,2013-08-21 22:12:00,
2013-08-21 17:17:00,88.7,67.1,30.01,North,1,0.0,0.0,49,0.00,CLR,,0.00,WeatherDisplay:10.37,2013-08-21 22:17:00,
2013-08-21 17:22:00,88.5,66.9,30.01,North,1,0.0,0.0,49,0.00,CLR,,0.00,WeatherDisplay:10.37,2013-08-21 22:22:00,
2013-08-21 17:27:00,88.5,66.9,30.01,North,1,0.0,0.0,49,0.00,CLR,,0.00,WeatherDisplay:10.37,2013-08-21 22:27:00,
2013-08-21 17:32:00,88.5,66.9,30.01,North,1,0.0,0.0,49,0.00,CLR,,0.00,WeatherDisplay:10.37,2013-08-21 22:32:00,
2013-08-21 17:37:00,88.2,67.2,30.00,North,1,0.0,0.0,50,0.00,CLR,,0.00,WeatherDisplay:10.37,2013-08-21 22:37:00,
2013-08-21 17:42:00,88.2,67.2,30.00,North,1,0.0,0.0,50,0.00,CLR,,0.00,WeatherDisplay:10.37,2013-08-21 22:42:00,
2013-08-21 17:47:00,88.2,67.2,30.00,North,1,0.0,0.0,50,0.00,CLR,,0.00,WeatherDisplay:10.37,2013-08-21 22:47:00,
2013-08-21 17:52:00,88.0,67.0,30.00,North,1,0.0,0.0,50,0.00,CLR,,0.00,WeatherDisplay:10.37,2013-08-21 22:52:00,
2013-08-21 17:57:00,87.8,66.8,30.00,North,1,0.0,0.0,50,0.00,CLR,,0.00,WeatherDisplay:10.37,2013-08-21 22:57:00,
2013-08-21 18:02:00,87.6,66.7,30.00,North,1,0.0,0.0,50,0.00,CLR,,0.00,WeatherDisplay:10.37,2013-08-21 23:02:00,
2013-08-21 18:07:00,87.4,67.1,30.00,North,1,0.0,0.0,51,0.00,CLR,,0.00,WeatherDisplay:10.37,2013-08-21 23:07:00,
2013-08-21 18:12:00,87.1,66.8,30.00,North,1,0.0,0.0,51,0.00,CLR,,0.00,WeatherDisplay:10.37,2013-08-21 23:12:00,
2013-08-21 18:17:00,86.7,66.4,30.00,North,1,0.0,0.0,51,0.00,CLR,,0.00,WeatherDisplay:10.37,2013-08-21 23:17:00,
2013-08-21 18:22:00,86.2,66.5,30.00,North,1,0.0,0.0,52,0.00,CLR,,0.00,WeatherDisplay:10.37,2013-08-21 23:22:00,
2013-08-21 18:27:00,85.8,66.7,30.00,North,1,0.0,0.0,53,0.00,CLR,,0.00,WeatherDisplay:10.37,2013-08-21 23:27:00,
2013-08-21 18:32:00,85.5,66.4,30.00,North,1,0.0,0.0,53,0.00,CLR,,0.00,WeatherDisplay:10.37,2013-08-21 23:32:00,
2013-08-21 18:37:00,85.1,66.6,30.00,North,1,0.0,0.0,54,0.00,CLR,,0.00,WeatherDisplay:10.37,2013-08-21 23:37:00,
2013-08-21 18:42:00,85.1,66.6,30.00,North,1,0.0,0.0,54,0.00,CLR,,0.00,WeatherDisplay:10.37,2013-08-21 23:42:00,
2013-08-21 18:47:00,84.9,66.9,30.00,North,1,0.0,0.0,55,0.00,CLR,,0.00,WeatherDisplay:10.37,2013-08-21 23:47:00,
2013-08-21 18:52:00,84.6,66.6,30.00,North,1,0.0,0.0,55,0.00,CLR,,0.00,WeatherDisplay:10.37,2013-08-21 23:52:00,
2013-08-21 18:57:00,84.6,67.1,30.00,North,1,0.0,0.0,56,0.00,CLR,,0.00,WeatherDisplay:10.37,2013-08-21 23:57:00,
2013-08-21 19:02:00,84.4,67.0,30.00,North,1,0.0,0.0,56,0.00,CLR,,0.00,WeatherDisplay:10.37,2013-08-22 00:02:00,
2013-08-21 19:07:00,84.0,67.1,30.00,North,1,0.0,0.0,57,0.00,CLR,,0.00,WeatherDisplay:10.37,2013-08-22 00:07:00,
2013-08-21 19:12:00,83.8,67.0,30.00,North,1,0.0,0.0,57,0.00,CLR,,0.00,WeatherDisplay:10.37,2013-08-22 00:12:00,
2013-08-21 19:17:00,83.7,66.8,29.99,North,1,0.0,0.0,57,0.00,CLR,,0.00,WeatherDisplay:10.37,2013-08-22 00:17:00,
2013-08-21 19:22:00,83.5,67.1,29.99,North,1,0.0,0.0,58,0.00,CLR,,0.00,WeatherDisplay:10.37,2013-08-22 00:22:00,
2013-08-21 19:27:00,83.1,66.8,30.00,North,1,0.0,0.0,58,0.00,CLR,,0.00,WeatherDisplay:10.37,2013-08-22 00:27:00,
2013-08-21 19:32:00,82.8,66.5,29.99,North,1,0.0,0.0,58,0.00,CLR,,0.00,WeatherDisplay:10.37,2013-08-22 00:32:00,
2013-08-21 19:37:00,82.8,67.0,29.99,North,1,0.0,0.0,59,0.00,CLR,,0.00,WeatherDisplay:10.37,2013-08-22 00:37:00,
2013-08-21 19:42:00,82.6,66.8,29.99,North,1,0.0,0.0,59,0.00,CLR,,0.00,WeatherDisplay:10.37,2013-08-22 00:42:00,
2013-08-21 19:47:00,82.2,66.5,29.99,North,1,0.0,0.0,59,0.00,CLR,,0.00,WeatherDisplay:10.37,2013-08-22 00:47:00,
2013-08-21 19:52:00,81.9,66.6,29.99,North,1,0.0,0.0,60,0.00,CLR,,0.00,WeatherDisplay:10.37,2013-08-22 00:52:00,
2013-08-21 19:57:00,81.5,66.3,29.99,North,1,0.0,0.0,60,0.00,CLR,,0.00,WeatherDisplay:10.37,2013-08-22 00:57:00,
2013-08-21 20:02:00,81.3,66.6,29.99,North,1,0.0,0.0,61,0.00,CLR,,0.00,WeatherDisplay:10.37,2013-08-22 01:02:00,
2013-08-21 20:07:00,81.0,66.2,29.99,North,1,0.0,0.0,61,0.00,CLR,,0.00,WeatherDisplay:10.37,2013-08-22 01:07:00,
2013-08-21 20:12:00,80.8,66.1,29.99,North,1,0.0,0.0,61,0.00,CLR,,0.00,WeatherDisplay:10.37,2013-08-22 01:12:00,
2013-08-21 20:17:00,80.4,66.2,29.99,North,1,0.0,0.0,62,0.00,CLR,,0.00,WeatherDisplay:10.37,2013-08-22 01:17:00,
2013-08-21 20:22:00,80.1,66.3,29.99,North,1,0.0,0.0,63,0.00,CLR,,0.00,WeatherDisplay:10.37,2013-08-22 01:22:00,
2013-08-21 20:27:00,79.9,66.2,29.99,North,1,0.0,0.0,63,0.00,CLR,,0.00,WeatherDisplay:10.37,2013-08-22 01:27:00,
2013-08-21 20:32:00,79.7,66.0,29.99,North,1,0.0,0.0,63,0.00,CLR,,0.00,WeatherDisplay:10.37,2013-08-22 01:32:00,
2013-08-21 20:37:00,79.7,66.0,30.00,North,1,0.0,0.0,63,0.00,CLR,,0.00,WeatherDisplay:10.37,2013-08-22 01:37:00,
2013-08-21 20:42:00,79.2,65.9,30.00,North,1,0.0,0.0,64,0.00,CLR,,0.00,WeatherDisplay:10.37,2013-08-22 01:42:00,
2013-08-21 20:47:00,79.2,66.4,30.00,North,1,0.0,0.0,65,0.00,CLR,,0.00,WeatherDisplay:10.37,2013-08-22 01:47:00,
2013-08-21 20:52:00,79.0,66.2,30.00,North,1,0.0,0.0,65,0.00,CLR,,0.00,WeatherDisplay:10.37,2013-08-22 01:52:00,
2013-08-21 20:57:00,78.4,66.1,30.00,North,1,0.0,0.0,66,0.00,CLR,,0.00,WeatherDisplay:10.37,2013-08-22 01:57:00,
2013-08-21 21:02:00,78.3,66.0,30.00,North,1,0.0,0.0,66,0.00,CLR,,0.00,WeatherDisplay:10.37,2013-08-22 02:02:00,
2013-08-21 21:07:00,78.1,65.8,30.00,North,1,0.0,0.0,66,0.00,CLR,,0.00,WeatherDisplay:10.37,2013-08-22 02:07:00,
2013-08-21 21:12:00,78.1,65.8,30.00,North,1,0.0,0.0,66,0.00,CLR,,0.00,WeatherDisplay:10.37,2013-08-22 02:12:00,
2013-08-21 21:17:00,77.7,65.9,30.01,North,1,0.0,0.0,67,0.00,CLR,,0.00,WeatherDisplay:10.37,2013-08-22 02:17:00,
2013-08-21 21:22:00,77.4,65.5,30.01,North,1,0.0,0.0,67,0.00,CLR,,0.00,WeatherDisplay:10.37,2013-08-22 02:22:00,
2013-08-21 21:27:00,77.4,65.5,30.01,North,1,0.0,0.0,67,0.00,CLR,,0.00,WeatherDisplay:10.37,2013-08-22 02:27:00,
2013-08-21 21:32:00,77.2,65.4,30.01,North,1,0.0,0.0,67,0.00,CLR,,0.00,WeatherDisplay:10.37,2013-08-22 02:32:00,
2013-08-21 21:37:00,76.8,65.5,30.01,North,1,0.0,0.0,68,0.00,CLR,,0.00,WeatherDisplay:10.37,2013-08-22 02:37:00,
2013-08-21 21:42:00,76.6,65.3,30.01,North,1,0.0,0.0,68,0.00,CLR,,0.00,WeatherDisplay:10.37,2013-08-22 02:42:00,
2013-08-21 21:47:00,76.5,65.5,30.01,North,1,0.0,0.0,69,0.00,CLR,,0.00,WeatherDisplay:10.37,2013-08-22 02:47:00,
2013-08-21 21:52:00,76.3,65.4,30.01,North,1,0.0,0.0,69,0.00,CLR,,0.00,WeatherDisplay:10.37,2013-08-22 02:52:00,
2013-08-21 21:57:00,76.3,65.4,30.01,North,1,0.0,0.0,69,0.00,CLR,,0.00,WeatherDisplay:10.37,2013-08-22 02:57:00,
2013-08-21 22:02:00,76.1,65.2,30.01,North,1,0.0,0.0,69,0.00,CLR,,0.00,WeatherDisplay:10.37,2013-08-22 03:02:00,
2013-08-21 22:07:00,75.9,65.0,30.01,North,1,0.0,0.0,69,0.00,CLR,,0.00,WeatherDisplay:10.37,2013-08-22 03:07:00,
2013-08-21 22:12:00,75.9,65.4,30.01,North,1,0.0,0.0,70,0.00,CLR,,0.00,WeatherDisplay:10.37,2013-08-22 03:12:00,